createdAt,value
2022-12-08T00:01:21.368Z,2.90
2022-12-08T00:03:48.590Z,3.05
2022-12-08T00:06:55.894Z,3.83
2022-12-08T00:09:41.359Z,3.55
2022-12-08T00:12:10.922Z,4.13
2022-12-08T00:14:42.503Z,3.85
2022-12-08T00:17:10.817Z,4.05
2022-12-08T00:19:39.243Z,3.72
2022-12-08T00:22:07.724Z,4.53
2022-12-08T00:24:39.532Z,4.65
2022-12-08T00:27:08.185Z,4.55
2022-12-08T00:29:34.704Z,4.80
2022-12-08T00:32:01.234Z,4.57
2022-12-08T00:34:27.741Z,4.45
2022-12-08T00:36:54.289Z,4.82
2022-12-08T00:39:20.862Z,4.43
2022-12-08T00:42:06.165Z,4.65
2022-12-08T00:44:32.692Z,4.70
2022-12-08T00:46:59.254Z,5.07
2022-12-08T00:49:25.776Z,4.97
2022-12-08T00:51:52.387Z,5.05
2022-12-08T00:54:19.236Z,4.80
2022-12-08T00:56:46.514Z,5.25
2022-12-08T00:59:14.334Z,5.35
2022-12-08T01:01:41.022Z,5.45
2022-12-08T01:04:10.493Z,5.63
2022-12-08T01:06:37.506Z,5.45
2022-12-08T01:09:06.324Z,5.55
2022-12-08T01:11:33.461Z,5.05
2022-12-08T01:13:59.950Z,5.53
2022-12-08T01:16:29.755Z,5.15
2022-12-08T01:18:57.814Z,5.72
2022-12-08T01:21:24.817Z,5.95
2022-12-08T01:23:51.404Z,5.25
2022-12-08T01:26:19.540Z,5.72
2022-12-08T01:28:47.183Z,5.25
2022-12-08T01:31:16.699Z,5.32
2022-12-08T01:33:44.319Z,5.43
2022-12-08T01:36:23.101Z,4.70
2022-12-08T01:38:50.471Z,5.00
2022-12-08T01:41:19.499Z,4.90
2022-12-08T01:44:09.437Z,4.75
2022-12-08T01:46:38.244Z,4.65
2022-12-08T01:49:24.280Z,4.55
2022-12-08T01:52:02.994Z,4.13
2022-12-08T01:54:34.617Z,4.63
2022-12-08T01:57:06.415Z,4.35
2022-12-08T01:59:36.653Z,4.10
2022-12-08T02:02:03.302Z,4.43
2022-12-08T02:04:29.860Z,4.18
2022-12-08T02:06:56.672Z,3.55
2022-12-08T02:09:24.341Z,3.03
2022-12-08T02:11:51.379Z,3.30
2022-12-08T02:14:17.888Z,3.10
2022-12-08T02:16:56.789Z,2.97
2022-12-08T02:20:00.819Z,3.30
2022-12-08T02:22:54.766Z,3.33
2022-12-08T02:25:45.666Z,3.38
2022-12-08T02:28:49.782Z,3.50
2022-12-08T02:31:35.456Z,3.40
2022-12-08T02:34:15.498Z,4.10
2022-12-08T02:36:57.364Z,4.13
2022-12-08T02:39:42.443Z,4.18
2022-12-08T02:42:17.685Z,4.03
2022-12-08T02:45:01.163Z,4.53
2022-12-08T02:47:29.278Z,4.18
2022-12-08T02:49:57.809Z,4.30
2022-12-08T02:52:24.270Z,4.35
2022-12-08T02:54:55.982Z,4.60
2022-12-08T02:57:44.489Z,4.40
2022-12-08T03:00:17.687Z,4.40
2022-12-08T03:03:07.212Z,4.60
2022-12-08T03:05:55.009Z,4.00
2022-12-08T03:08:34.550Z,4.15
2022-12-08T03:11:08.577Z,4.13
2022-12-08T03:13:42.234Z,3.88
2022-12-08T03:16:12.172Z,3.42
2022-12-08T03:18:45.313Z,3.58
2022-12-08T03:21:15.514Z,3.75
2022-12-08T03:23:45.246Z,3.65
2022-12-08T03:26:19.332Z,3.45
2022-12-08T03:28:46.386Z,3.35
2022-12-08T03:31:17.078Z,3.13
2022-12-08T03:33:46.954Z,3.20
2022-12-08T03:36:14.657Z,3.00
2022-12-08T03:38:43.480Z,3.00
2022-12-08T03:41:19.231Z,2.50
2022-12-08T03:43:52.690Z,2.42
2022-12-08T03:48:47.558Z,2.30
2022-12-08T03:51:14.638Z,2.40
2022-12-08T03:53:41.530Z,2.05
2022-12-08T03:56:15.907Z,2.10
2022-12-08T03:58:43.716Z,1.80
2022-12-08T04:01:10.718Z,1.67
2022-12-08T04:03:37.197Z,1.92
2022-12-08T04:06:04.033Z,1.60
2022-12-08T04:08:30.500Z,1.30
2022-12-08T04:10:57.037Z,1.48
2022-12-08T04:13:23.844Z,1.10
2022-12-08T04:15:50.450Z,1.00
2022-12-08T04:18:17.043Z,1.33
2022-12-08T04:20:45.258Z,1.55
2022-12-08T04:23:12.437Z,1.23
2022-12-08T04:25:39.359Z,1.20
2022-12-08T04:28:06.311Z,0.90
2022-12-08T04:30:33.707Z,0.95
2022-12-08T04:33:00.262Z,1.00
2022-12-08T04:35:26.847Z,1.05
2022-12-08T04:37:53.569Z,1.10
2022-12-08T04:40:20.315Z,0.93
2022-12-08T04:42:46.807Z,1.10
2022-12-08T04:45:13.470Z,1.05
2022-12-08T04:47:41.462Z,1.10
2022-12-08T04:50:08.569Z,1.20
2022-12-08T04:52:35.458Z,1.33
2022-12-08T04:55:02.254Z,1.40
2022-12-08T04:57:28.765Z,1.52
2022-12-08T04:59:55.817Z,1.70
2022-12-08T05:02:22.341Z,1.60
2022-12-08T05:04:48.905Z,1.70
2022-12-08T05:07:15.547Z,1.98
2022-12-08T05:09:42.191Z,2.10
2022-12-08T05:12:08.786Z,2.22
2022-12-08T05:14:35.278Z,2.22
2022-12-08T05:17:07.806Z,2.30
2022-12-08T05:19:36.147Z,2.17
2022-12-08T05:22:02.678Z,1.85
2022-12-08T05:24:29.152Z,1.90
2022-12-08T05:26:55.661Z,1.63
2022-12-08T05:29:22.212Z,1.40
2022-12-08T05:31:48.976Z,1.48
2022-12-08T05:34:15.689Z,1.10
2022-12-08T05:36:42.253Z,1.10
2022-12-08T05:39:13.881Z,0.93
2022-12-08T05:41:40.634Z,0.90
2022-12-08T05:44:07.766Z,1.10
2022-12-08T05:46:34.696Z,1.00
2022-12-08T05:49:01.983Z,0.90
2022-12-08T05:51:29.336Z,1.00
2022-12-08T05:53:56.883Z,1.00
2022-12-08T05:56:23.906Z,1.10
2022-12-08T05:58:50.562Z,0.88
2022-12-08T06:01:31.410Z,1.13
2022-12-08T06:04:00.078Z,0.98
2022-12-08T06:06:27.688Z,1.00
2022-12-08T06:08:54.760Z,0.90
2022-12-08T06:11:27.075Z,1.05
2022-12-08T06:13:55.938Z,1.23
2022-12-08T06:16:23.277Z,1.20
2022-12-08T06:18:50.293Z,1.13
2022-12-08T06:21:17.448Z,1.30
2022-12-08T06:23:44.667Z,1.00
2022-12-08T06:26:13.990Z,1.00
2022-12-08T06:28:42.376Z,1.10
2022-12-08T06:31:11.614Z,0.93
2022-12-08T06:33:38.495Z,0.93
2022-12-08T06:36:06.168Z,1.00
2022-12-08T06:38:32.947Z,1.10
2022-12-08T06:41:00.332Z,1.10
2022-12-08T06:43:27.584Z,1.00
2022-12-08T06:45:54.125Z,0.88
2022-12-08T06:48:20.781Z,1.10
2022-12-08T06:50:47.400Z,1.13
2022-12-08T06:53:15.191Z,1.00
2022-12-08T06:55:59.259Z,1.00
2022-12-08T06:58:26.255Z,1.20
2022-12-08T07:00:53.563Z,1.20
2022-12-08T07:03:20.645Z,1.23
2022-12-08T07:05:47.261Z,0.90
2022-12-08T07:08:14.073Z,0.80
2022-12-08T07:10:40.588Z,0.80
2022-12-08T07:13:07.232Z,0.90
2022-12-08T07:15:33.741Z,0.73
2022-12-08T07:18:00.706Z,0.80
2022-12-08T07:20:27.935Z,1.00
2022-12-08T07:22:54.664Z,1.08
2022-12-08T07:25:21.538Z,1.33
2022-12-08T07:27:50.148Z,1.20
2022-12-08T07:30:16.831Z,1.70
2022-12-08T07:32:43.713Z,1.70
2022-12-08T07:35:10.644Z,1.70
2022-12-08T07:37:37.692Z,2.30
2022-12-08T07:40:09.088Z,1.85
2022-12-08T07:42:35.675Z,2.00
2022-12-08T07:45:02.531Z,2.00
2022-12-08T07:47:29.160Z,2.17
2022-12-08T07:49:55.715Z,2.03
2022-12-08T07:52:22.245Z,2.33
2022-12-08T07:54:48.864Z,2.42
2022-12-08T07:57:15.385Z,2.70
2022-12-08T07:59:41.888Z,2.20
2022-12-08T08:02:26.030Z,1.95
2022-12-08T08:04:53.458Z,2.20
2022-12-08T08:07:20.145Z,2.20
2022-12-08T08:09:46.770Z,2.10
2022-12-08T08:15:01.507Z,2.33
2022-12-08T08:17:29.609Z,2.20
2022-12-08T08:19:56.464Z,2.50
2022-12-08T08:22:22.945Z,1.85
2022-12-08T08:24:49.525Z,1.98
2022-12-08T08:27:16.061Z,2.03
2022-12-08T08:29:42.539Z,1.80
2022-12-08T08:32:09.068Z,2.92
2022-12-08T08:34:35.606Z,2.58
2022-12-08T08:37:02.171Z,1.90
2022-12-08T08:39:30.265Z,10.60
2022-12-08T08:41:56.807Z,3.67
2022-12-08T08:44:23.553Z,2.30
2022-12-08T08:46:50.286Z,1.92
2022-12-08T08:49:16.867Z,1.70
2022-12-08T08:51:43.789Z,1.35
2022-12-08T08:54:10.981Z,2.40
2022-12-08T08:56:37.595Z,1.58
2022-12-08T08:59:04.196Z,1.45
2022-12-08T09:01:31.043Z,1.67
2022-12-08T09:03:58.211Z,1.20
2022-12-08T09:06:25.936Z,1.35
2022-12-08T09:08:52.626Z,1.10
2022-12-08T09:11:19.573Z,1.20
2022-12-08T09:13:50.823Z,0.90
2022-12-08T09:16:18.167Z,1.20
2022-12-08T09:18:44.943Z,1.20
2022-12-08T09:21:16.527Z,1.10
2022-12-08T09:23:43.724Z,1.00
2022-12-08T09:26:10.455Z,1.00
2022-12-08T09:28:37.582Z,2.80
2022-12-08T09:31:04.368Z,0.95
2022-12-08T09:33:31.220Z,1.60
2022-12-08T09:36:02.193Z,1.17
2022-12-08T09:38:28.667Z,1.50
2022-12-08T09:40:55.348Z,1.50
2022-12-08T09:43:43.733Z,1.50
2022-12-08T09:46:13.547Z,1.50
2022-12-08T09:48:57.035Z,1.40
2022-12-08T09:51:31.481Z,1.67
2022-12-08T09:54:04.308Z,1.30
2022-12-08T09:56:37.111Z,1.27
2022-12-08T09:59:22.441Z,1.45
2022-12-08T10:01:49.457Z,1.33
2022-12-08T10:04:36.382Z,1.58
2022-12-08T10:07:16.803Z,1.38
2022-12-08T10:10:02.674Z,1.20
2022-12-08T10:12:41.317Z,1.38
2022-12-08T10:15:26.756Z,1.80
2022-12-08T10:17:54.925Z,7.68
2022-12-08T10:20:24.265Z,1.63
2022-12-08T10:23:14.207Z,2.78
2022-12-08T10:25:56.359Z,1.60
2022-12-08T10:28:22.902Z,1.73
2022-12-08T10:30:49.523Z,2.25
2022-12-08T10:33:18.002Z,2.17
2022-12-08T10:35:50.129Z,1.33
2022-12-08T10:38:22.216Z,1.30
2022-12-08T10:40:51.414Z,1.60
2022-12-08T10:43:22.762Z,1.10
2022-12-08T10:45:49.867Z,1.10
2022-12-08T10:48:25.621Z,1.30
2022-12-08T10:50:58.224Z,1.00
2022-12-08T10:53:30.431Z,1.00
2022-12-08T10:56:02.798Z,1.00
2022-12-08T10:58:41.285Z,0.85
2022-12-08T11:01:21.570Z,0.73
2022-12-08T11:03:52.379Z,0.70
2022-12-08T11:06:29.092Z,0.80
2022-12-08T11:08:59.011Z,0.80
2022-12-08T11:11:47.960Z,0.60
2022-12-08T11:14:25.030Z,0.68
2022-12-08T11:16:55.310Z,0.68
2022-12-08T11:19:25.707Z,0.90
2022-12-08T11:21:52.208Z,1.30
2022-12-08T11:24:28.605Z,1.20
2022-12-08T11:27:03.585Z,1.00
2022-12-08T11:29:32.998Z,1.05
2022-12-08T11:32:19.728Z,1.15
2022-12-08T11:35:02.989Z,0.90
2022-12-08T11:37:43.470Z,0.90
2022-12-08T11:40:31.595Z,0.90
2022-12-08T11:43:25.438Z,0.85
2022-12-08T11:45:59.071Z,1.00
2022-12-08T11:48:29.827Z,1.00
2022-12-08T11:51:03.799Z,1.30
2022-12-08T11:54:12.713Z,1.20
2022-12-08T11:56:44.783Z,1.60
2022-12-08T11:59:35.146Z,1.60
2022-12-08T12:02:04.396Z,1.70
2022-12-08T12:04:30.955Z,1.50
2022-12-08T12:07:12.458Z,1.65
2022-12-08T12:09:56.757Z,1.70
2022-12-08T12:12:37.916Z,1.27
2022-12-08T12:15:21.015Z,1.33
2022-12-08T12:17:52.946Z,1.20
2022-12-08T12:20:32.065Z,1.27
2022-12-08T12:23:07.961Z,1.10
2022-12-08T12:25:36.003Z,0.82
2022-12-08T12:28:06.605Z,0.68
2022-12-08T12:30:56.187Z,0.70
2022-12-08T12:33:23.208Z,0.60
2022-12-08T12:35:50.017Z,0.57
2022-12-08T12:38:52.467Z,0.60
2022-12-08T12:41:25.689Z,0.60
2022-12-08T12:44:27.994Z,0.60
2022-12-08T12:46:54.500Z,0.82
2022-12-08T12:49:39.649Z,0.70
2022-12-08T12:52:15.106Z,0.70
2022-12-08T12:54:50.902Z,0.73
2022-12-08T12:57:20.433Z,0.70
2022-12-08T13:00:08.430Z,0.60
2022-12-08T13:02:44.399Z,0.80
2022-12-08T13:05:30.707Z,1.10
2022-12-08T13:08:07.920Z,1.30
2022-12-08T13:10:37.788Z,1.27
2022-12-08T13:13:10.123Z,1.35
2022-12-08T13:16:18.441Z,1.40
2022-12-08T13:18:52.266Z,1.70
2022-12-08T13:21:22.878Z,1.50
2022-12-08T13:24:12.790Z,2.08
2022-12-08T13:26:51.065Z,1.80
2022-12-08T13:29:17.529Z,2.05
2022-12-08T13:31:50.194Z,1.63
2022-12-08T13:34:33.338Z,1.98
2022-12-08T13:37:11.958Z,1.90
2022-12-08T13:40:02.379Z,1.80
2022-12-08T13:42:53.531Z,1.45
2022-12-08T13:45:59.950Z,1.65
2022-12-08T13:49:26.241Z,1.40
2022-12-08T13:57:35.898Z,1.42
2022-12-08T14:00:06.520Z,1.30
2022-12-08T14:02:47.743Z,1.25
2022-12-08T14:05:18.591Z,1.30
2022-12-08T14:07:48.658Z,1.38
2022-12-08T14:10:20.685Z,1.63
2022-12-08T14:12:52.241Z,1.70
2022-12-08T14:15:19.539Z,1.42
2022-12-08T14:17:54.434Z,1.90
2022-12-08T14:22:52.461Z,1.92
2022-12-08T14:25:19.720Z,1.95
2022-12-08T14:27:47.651Z,1.98
2022-12-08T14:30:14.314Z,2.22
2022-12-08T14:32:58.985Z,2.20
2022-12-08T14:35:37.971Z,1.98
2022-12-08T14:38:16.807Z,2.35
2022-12-08T14:40:45.488Z,2.38
2022-12-08T14:43:14.782Z,2.83
2022-12-08T14:45:44.182Z,2.55
2022-12-08T14:48:25.673Z,2.50
2022-12-08T14:50:55.422Z,2.67
2022-12-08T14:53:22.235Z,2.97
2022-12-08T14:55:49.547Z,2.65
2022-12-08T14:58:24.913Z,3.40
2022-12-08T15:00:54.655Z,2.95
2022-12-08T15:03:23.585Z,2.63
2022-12-08T15:05:57.739Z,2.83
2022-12-08T15:08:24.670Z,2.72
2022-12-08T15:11:30.095Z,3.03
2022-12-08T15:13:56.743Z,4.05
2022-12-08T15:16:27.823Z,3.22
2022-12-08T15:19:18.128Z,3.03
2022-12-08T15:21:45.981Z,3.15
2022-12-08T15:24:14.999Z,3.42
2022-12-08T15:26:47.277Z,3.55
2022-12-08T15:29:19.050Z,11.98
2022-12-08T15:31:45.655Z,3.50
2022-12-08T15:34:12.160Z,3.22
2022-12-08T15:36:39.834Z,3.70
2022-12-08T15:39:17.663Z,3.45
2022-12-08T15:41:44.187Z,3.80
2022-12-08T15:44:10.687Z,3.70
2022-12-08T15:46:37.253Z,3.53
2022-12-08T15:49:03.824Z,4.05
2022-12-08T15:51:36.293Z,3.58
2022-12-08T15:54:02.813Z,4.50
2022-12-08T15:56:29.418Z,4.50
2022-12-08T15:58:57.197Z,4.50
2022-12-08T16:01:24.823Z,4.40
2022-12-08T16:09:36.420Z,8.43
2022-12-08T16:12:21.736Z,4.90
2022-12-08T16:17:35.938Z,4.70
2022-12-08T16:20:04.643Z,4.75
2022-12-08T16:25:21.805Z,5.13
2022-12-08T16:28:17.518Z,4.97
2022-12-08T16:30:42.037Z,4.93
2022-12-08T16:33:10.426Z,5.13
2022-12-08T16:35:37.094Z,5.78
2022-12-08T16:38:04.237Z,5.45
2022-12-08T16:40:30.850Z,6.05
2022-12-08T16:42:57.318Z,6.47
2022-12-08T16:45:27.761Z,5.47
2022-12-08T16:47:56.817Z,6.43
2022-12-08T16:50:24.429Z,6.25
2022-12-08T16:52:56.872Z,6.43
2022-12-08T16:55:23.420Z,7.40
2022-12-08T16:57:50.012Z,9.77
2022-12-08T17:00:25.120Z,6.65
2022-12-08T17:02:52.326Z,6.00
2022-12-08T17:05:21.589Z,5.93
2022-12-08T17:07:50.645Z,5.88
2022-12-08T17:10:20.679Z,6.10
2022-12-08T17:12:47.130Z,5.95
2022-12-08T17:15:17.097Z,6.00
2022-12-08T17:17:43.592Z,5.43
2022-12-08T17:20:16.128Z,5.65
2022-12-08T17:22:43.373Z,5.70
2022-12-08T17:25:10.284Z,6.30
2022-12-08T17:27:37.759Z,5.88
2022-12-08T17:30:06.011Z,6.05
2022-12-08T17:32:33.005Z,6.80
2022-12-08T17:34:59.579Z,5.68
2022-12-08T17:37:26.270Z,5.57
2022-12-08T17:39:52.940Z,6.72
2022-12-08T17:42:19.511Z,6.53
2022-12-08T17:44:46.708Z,5.70
2022-12-08T17:47:13.318Z,5.70
2022-12-08T17:49:39.905Z,5.40
2022-12-08T17:52:09.288Z,6.03
2022-12-08T17:54:36.475Z,6.60
2022-12-08T17:57:03.457Z,5.60
2022-12-08T17:59:30.627Z,6.25
2022-12-08T18:01:58.423Z,6.80
2022-12-08T18:04:26.516Z,5.88
2022-12-08T18:06:53.059Z,6.35
2022-12-08T18:09:20.137Z,5.35
2022-12-08T18:11:46.738Z,6.00
2022-12-08T18:14:14.336Z,5.82
2022-12-08T18:16:44.315Z,5.57
2022-12-08T18:19:12.460Z,6.28
2022-12-08T18:21:39.580Z,6.28
2022-12-08T18:24:07.587Z,7.05
2022-12-08T18:26:34.756Z,7.75
2022-12-08T18:29:01.818Z,10.60
2022-12-08T18:31:28.534Z,7.57
2022-12-08T18:33:55.143Z,9.73
2022-12-08T18:36:24.787Z,6.60
2022-12-08T18:38:52.911Z,6.80
2022-12-08T18:41:23.404Z,7.50
2022-12-08T18:43:50.644Z,6.85
2022-12-08T18:46:17.332Z,6.75
2022-12-08T18:48:47.271Z,5.95
2022-12-08T18:51:21.136Z,5.80
2022-12-08T18:53:47.791Z,5.50
2022-12-08T18:56:29.908Z,5.75
2022-12-08T18:59:02.892Z,5.97
2022-12-08T19:01:31.970Z,5.68
2022-12-08T19:06:49.412Z,6.55
2022-12-08T19:09:16.717Z,6.25
2022-12-08T19:11:43.622Z,6.05
2022-12-08T19:14:11.506Z,7.03
2022-12-08T19:16:38.201Z,7.05
2022-12-08T19:19:05.445Z,8.52
2022-12-08T19:21:33.394Z,8.52
2022-12-08T19:24:00.353Z,10.23
2022-12-08T19:26:28.377Z,7.30
2022-12-08T19:28:54.888Z,7.28
2022-12-08T19:31:21.833Z,8.27
2022-12-08T19:33:48.399Z,8.63
2022-12-08T19:36:18.258Z,8.32
2022-12-08T19:39:03.049Z,8.15
2022-12-08T19:41:48.379Z,7.63
2022-12-08T19:44:34.366Z,7.30
2022-12-08T19:47:02.184Z,8.13
2022-12-08T19:49:28.901Z,7.45
2022-12-08T19:51:55.517Z,8.57
2022-12-08T19:54:22.110Z,7.97
2022-12-08T19:56:48.607Z,9.00
2022-12-08T19:59:15.791Z,8.45
2022-12-08T20:01:44.118Z,8.75
2022-12-08T20:04:14.402Z,8.88
2022-12-08T20:06:40.990Z,8.82
2022-12-08T20:09:08.178Z,8.90
2022-12-08T20:11:34.715Z,9.23
2022-12-08T20:14:01.236Z,9.05
2022-12-08T20:16:27.825Z,9.68
2022-12-08T20:18:54.452Z,9.48
2022-12-08T20:21:21.552Z,9.32
2022-12-08T20:23:49.756Z,9.65
2022-12-08T20:26:18.952Z,9.82
2022-12-08T20:28:45.546Z,16.13
2022-12-08T20:31:24.627Z,14.20
2022-12-08T20:33:52.054Z,19.52
2022-12-08T20:36:21.023Z,11.00
2022-12-08T20:38:49.342Z,9.77
2022-12-08T20:41:16.311Z,10.05
2022-12-08T20:43:44.176Z,10.00
2022-12-08T20:46:13.155Z,9.48
2022-12-08T20:48:40.539Z,9.55
2022-12-08T20:51:07.143Z,9.40
2022-12-08T20:53:33.825Z,9.88
2022-12-08T20:56:00.523Z,10.00
2022-12-08T20:58:27.263Z,9.07
2022-12-08T21:00:54.108Z,9.88
2022-12-08T21:03:20.651Z,9.30
2022-12-08T21:05:52.070Z,9.43
2022-12-08T21:08:19.871Z,9.50
2022-12-08T21:10:53.468Z,9.57
2022-12-08T21:13:20.298Z,9.38
2022-12-08T21:15:47.175Z,9.48
2022-12-08T21:18:15.591Z,10.00
2022-12-08T21:20:42.740Z,9.55
2022-12-08T21:23:09.818Z,9.18
2022-12-08T21:25:42.991Z,9.77
2022-12-08T21:28:09.937Z,9.95
2022-12-08T21:30:39.125Z,9.02
2022-12-08T21:33:06.269Z,9.88
2022-12-08T21:35:33.084Z,9.48
2022-12-08T21:37:59.591Z,9.23
2022-12-08T21:40:26.342Z,9.52
2022-12-08T21:42:53.046Z,10.02
2022-12-08T21:45:20.590Z,9.93
2022-12-08T21:47:48.975Z,9.95
2022-12-08T21:50:16.882Z,10.20
2022-12-08T21:52:45.760Z,9.80
2022-12-08T21:55:14.726Z,10.55
2022-12-08T21:57:42.088Z,10.05
2022-12-08T22:00:11.715Z,10.30
2022-12-08T22:02:38.855Z,9.18
2022-12-08T22:05:06.075Z,10.75
2022-12-08T22:07:32.747Z,9.82
2022-12-08T22:09:59.367Z,10.18
2022-12-08T22:12:26.113Z,10.57
2022-12-08T22:14:52.814Z,9.95
2022-12-08T22:17:20.207Z,10.60
2022-12-08T22:19:47.126Z,10.50
2022-12-08T22:22:13.641Z,10.65
2022-12-08T22:24:41.309Z,11.50
2022-12-08T22:27:07.859Z,11.20
2022-12-08T22:29:34.394Z,11.15
2022-12-08T22:32:00.993Z,11.00
2022-12-08T22:34:27.590Z,11.07
2022-12-08T22:36:54.276Z,10.20
2022-12-08T22:39:20.804Z,10.90
2022-12-08T22:41:47.491Z,11.38
2022-12-08T22:44:15.815Z,10.98
2022-12-08T22:46:42.447Z,11.10
2022-12-08T22:49:09.432Z,11.60
2022-12-08T22:51:36.801Z,11.80
2022-12-08T22:54:04.406Z,12.13
2022-12-08T22:56:31.111Z,14.23
2022-12-08T22:58:58.027Z,12.07
2022-12-08T23:01:27.811Z,11.45
2022-12-08T23:03:55.023Z,11.32
2022-12-08T23:06:21.795Z,11.50
2022-12-08T23:08:49.128Z,11.02
2022-12-08T23:11:16.211Z,10.68
2022-12-08T23:13:42.965Z,11.27
2022-12-08T23:16:10.948Z,11.38
2022-12-08T23:18:41.164Z,11.05
2022-12-08T23:21:10.625Z,11.23
2022-12-08T23:23:37.760Z,10.68
2022-12-08T23:26:17.547Z,11.02
2022-12-08T23:28:44.438Z,11.52
2022-12-08T23:31:11.134Z,10.85
2022-12-08T23:33:37.883Z,10.80
2022-12-08T23:36:04.977Z,11.20
2022-12-08T23:38:31.666Z,10.27
2022-12-08T23:41:02.930Z,10.25
2022-12-08T23:43:29.618Z,10.45
2022-12-08T23:45:56.465Z,11.02
2022-12-08T23:48:23.541Z,10.38
2022-12-08T23:50:50.590Z,11.75
2022-12-08T23:53:17.135Z,10.95
2022-12-08T23:55:43.661Z,11.30
2022-12-08T23:58:10.809Z,11.32
